Time;durP1;ratioP1;P1;durP2;ratioP2;P2;SDS_P1;SDS_P2;PMS_P1;PMS_P2;Temp;Humidity;BMP_temperature;BMP_pressure;BME280_temperature;BME280_humidity;BME280_pressure;Samples;Min_cycle;Max_cycle;Signal;HPM_P1;HPM_P2
2023/08/05 00:00:23;;;;;;;3.27;2.60;;;15.70;99.90;;;;;;5114321;27;20624;-73
2023/08/05 00:02:50;;;;;;;4.23;3.17;;;15.70;99.90;;;;;;5118772;27;20620;-73
2023/08/05 00:05:17;;;;;;;3.13;2.47;;;15.60;99.90;;;;;;5119564;27;20981;-73
2023/08/05 00:07:45;;;;;;;4.07;2.60;;;15.60;99.90;;;;;;5110975;28;20988;-73
2023/08/05 00:10:13;;;;;;;3.77;2.93;;;15.50;99.90;;;;;;5117640;27;20713;-73
2023/08/05 00:12:39;;;;;;;4.67;2.60;;;15.60;99.90;;;;;;5112079;27;20631;-73
2023/08/05 00:15:09;;;;;;;4.10;3.37;;;15.50;99.90;;;;;;5122448;27;20635;-73
2023/08/05 00:17:35;;;;;;;2.87;2.60;;;15.50;99.90;;;;;;5115971;27;20630;-73
2023/08/05 00:20:02;;;;;;;2.80;2.50;;;15.60;99.90;;;;;;5114677;27;20615;-73
2023/08/05 00:22:29;;;;;;;6.20;2.80;;;15.60;99.90;;;;;;5121328;27;21038;-73
2023/08/05 00:24:56;;;;;;;3.40;2.60;;;15.50;99.90;;;;;;5119531;27;20992;-73
2023/08/05 00:27:22;;;;;;;2.43;2.23;;;15.60;99.90;;;;;;5105841;28;20656;-73
2023/08/05 00:29:49;;;;;;;2.83;2.60;;;15.40;99.90;;;;;;5110032;28;20732;-73
2023/08/05 00:32:17;;;;;;;2.33;2.13;;;15.50;99.90;;;;;;5109482;28;21306;-73
2023/08/05 00:34:44;;;;;;;4.53;2.77;;;15.50;99.90;;;;;;5123032;27;21435;-73
2023/08/05 00:37:11;;;;;;;3.67;3.10;;;15.50;99.90;;;;;;5115222;27;20663;-73
2023/08/05 00:39:38;;;;;;;2.67;2.30;;;15.50;99.90;;;;;;5121344;27;20627;-73
2023/08/05 00:42:05;;;;;;;3.17;2.87;;;15.40;99.90;;;;;;5117865;27;20655;-73
2023/08/05 00:44:32;;;;;;;2.60;2.40;;;15.40;99.90;;;;;;5110667;28;20628;-73
2023/08/05 00:47:00;;;;;;;5.07;3.53;;;15.40;99.90;;;;;;5110285;28;20652;-73
2023/08/05 00:49:29;;;;;;;3.00;2.40;;;15.40;99.90;;;;;;5109857;28;20612;-73
2023/08/05 00:51:57;;;;;;;3.30;3.00;;;15.40;99.90;;;;;;5117921;27;20774;-73
2023/08/05 00:54:23;;;;;;;3.83;2.23;;;15.40;99.90;;;;;;5117204;27;20661;-73
2023/08/05 00:56:51;;;;;;;3.10;2.60;;;15.40;99.90;;;;;;5118156;27;20758;-73
2023/08/05 00:59:19;;;;;;;2.70;2.50;;;15.50;99.90;;;;;;5109821;28;20631;-73
2023/08/05 01:01:46;;;;;;;2.30;2.10;;;15.50;99.90;;;;;;5114990;27;20679;-73
2023/08/05 01:04:12;;;;;;;2.97;2.70;;;15.40;99.90;;;;;;5118691;27;20958;-73
2023/08/05 01:06:41;;;;;;;3.57;2.90;;;15.40;99.90;;;;;;5110244;27;20640;-73
2023/08/05 01:09:08;;;;;;;4.27;3.10;;;15.30;99.90;;;;;;5120503;27;20628;-73
2023/08/05 01:11:36;;;;;;;3.03;2.40;;;15.40;99.90;;;;;;5110269;27;20782;-73
2023/08/05 01:14:03;;;;;;;2.77;2.57;;;15.30;99.90;;;;;;5110038;28;20621;-73
2023/08/05 01:16:31;;;;;;;2.60;2.40;;;15.20;99.90;;;;;;5108923;28;20705;-73
2023/08/05 01:19:00;;;;;;;4.03;2.83;;;15.20;99.90;;;;;;5115594;27;20651;-73
2023/08/05 01:21:35;;;;;;;4.63;2.67;;;15.30;99.90;;;;;;5109559;27;20658;-73
2023/08/05 01:24:14;;;;;;;2.87;2.60;;;15.30;99.90;;;;;;5110489;28;20628;-73
2023/08/05 01:26:44;;;;;;;2.47;2.23;;;15.30;99.90;;;;;;5105869;28;20643;-73
2023/08/05 01:29:11;;;;;;;3.60;2.53;;;15.40;99.90;;;;;;5108522;28;21293;-73
2023/08/05 01:31:41;;;;;;;3.10;2.83;;;15.30;99.90;;;;;;5090628;28;20752;-73
2023/08/05 01:34:10;;;;;;;3.50;3.00;;;15.30;99.90;;;;;;5109216;28;21192;-73
2023/08/05 01:36:37;;;;;;;3.30;3.00;;;15.20;99.90;;;;;;5113216;27;20648;-73
2023/08/05 01:39:05;;;;;;;4.40;2.57;;;15.20;99.90;;;;;;5117846;27;20986;-73
2023/08/05 01:41:33;;;;;;;2.70;2.30;;;15.20;99.90;;;;;;5110420;27;20708;-73
2023/08/05 01:44:01;;;;;;;2.47;2.17;;;15.20;99.90;;;;;;5117909;27;20646;-73
2023/08/05 01:46:28;;;;;;;3.70;2.77;;;15.10;99.90;;;;;;5110497;27;20651;-73
2023/08/05 01:48:56;;;;;;;3.73;3.00;;;15.10;99.90;;;;;;5112586;27;20628;-73
2023/08/05 01:51:24;;;;;;;3.17;2.53;;;15.20;99.90;;;;;;5107238;28;20786;-73
2023/08/05 01:53:51;;;;;;;2.70;2.50;;;15.20;99.90;;;;;;5111928;27;20632;-73
2023/08/05 01:56:19;;;;;;;5.13;2.30;;;15.20;99.90;;;;;;5115141;27;20759;-73
2023/08/05 01:58:47;;;;;;;3.00;2.30;;;15.20;99.90;;;;;;5117049;27;20730;-73
2023/08/05 02:01:16;;;;;;;4.27;2.80;;;15.20;99.90;;;;;;5116340;27;20814;-73
2023/08/05 02:03:44;;;;;;;3.10;2.60;;;15.30;99.90;;;;;;5101094;28;21012;-73
2023/08/05 02:06:14;;;;;;;4.00;2.47;;;15.30;99.90;;;;;;5108976;28;20651;-73
2023/08/05 02:08:41;;;;;;;6.00;2.80;;;15.20;99.90;;;;;;5115885;27;20639;-73
2023/08/05 02:11:08;;;;;;;2.30;2.03;;;15.10;99.90;;;;;;5108596;28;20672;-73
2023/08/05 02:13:35;;;;;;;4.53;2.77;;;15.20;99.90;;;;;;5110483;27;20604;-73
2023/08/05 02:16:04;;;;;;;4.57;2.90;;;15.20;99.90;;;;;;5114494;27;20659;-74
2023/08/05 02:18:32;;;;;;;4.03;2.33;;;15.20;99.90;;;;;;5112279;27;20613;-74
2023/08/05 02:21:00;;;;;;;2.63;2.43;;;15.20;99.90;;;;;;5119465;27;20746;-73
2023/08/05 02:23:28;;;;;;;2.47;2.27;;;15.10;99.90;;;;;;5113143;27;21245;-73
2023/08/05 02:25:55;;;;;;;3.50;2.60;;;15.20;99.90;;;;;;5117501;27;20815;-73
2023/08/05 02:28:23;;;;;;;2.27;2.07;;;15.20;99.90;;;;;;5114091;27;20627;-74
2023/08/05 02:30:51;;;;;;;3.80;3.20;;;15.20;99.90;;;;;;5113780;27;20776;-74
2023/08/05 02:33:19;;;;;;;3.37;3.03;;;15.10;99.90;;;;;;5118398;27;21173;-73
2023/08/05 02:35:48;;;;;;;5.40;3.00;;;15.10;99.90;;;;;;5116970;27;20756;-73
2023/08/05 02:38:16;;;;;;;4.80;2.83;;;15.00;99.90;;;;;;5107172;28;20631;-73
2023/08/05 02:40:43;;;;;;;3.07;2.70;;;15.00;99.90;;;;;;5107558;28;21098;-73
2023/08/05 02:43:10;;;;;;;2.80;2.40;;;14.90;99.90;;;;;;5113510;27;20612;-73
2023/08/05 02:45:37;;;;;;;3.70;3.30;;;14.80;99.90;;;;;;5110364;27;20659;-73
2023/08/05 02:48:05;;;;;;;4.27;3.00;;;14.80;99.90;;;;;;5108412;28;20627;-73
2023/08/05 02:50:32;;;;;;;3.43;2.73;;;14.80;99.90;;;;;;5118831;27;20655;-73
2023/08/05 02:53:01;;;;;;;10.37;2.90;;;14.90;99.90;;;;;;5116917;27;20635;-74
2023/08/05 02:55:29;;;;;;;3.40;2.80;;;14.80;99.90;;;;;;5116494;27;20792;-73
2023/08/05 02:57:57;;;;;;;2.70;2.40;;;14.70;99.90;;;;;;5114453;27;21416;-73
2023/08/05 03:00:24;;;;;;;2.93;2.70;;;14.70;99.90;;;;;;5115949;27;20659;-73
2023/08/05 03:02:51;;;;;;;4.60;2.83;;;14.70;99.90;;;;;;5110472;27;20652;-73
2023/08/05 03:05:18;;;;;;;2.77;2.50;;;14.70;99.90;;;;;;5110246;27;20623;-73
2023/08/05 03:07:48;;;;;;;2.80;2.60;;;14.60;99.90;;;;;;5108329;27;20646;-73
2023/08/05 03:10:17;;;;;;;4.13;3.20;;;14.60;99.90;;;;;;5113622;28;20632;-74
2023/08/05 03:12:45;;;;;;;3.17;2.87;;;14.60;99.90;;;;;;5118744;28;20701;-73
2023/08/05 03:15:14;;;;;;;3.70;3.40;;;14.60;99.90;;;;;;5114153;28;20666;-74
2023/08/05 03:17:43;;;;;;;2.77;2.57;;;14.70;99.90;;;;;;5114672;28;21005;-74
2023/08/05 03:20:24;;;;;;;3.17;2.87;;;14.60;99.90;;;;;;5113886;28;20624;-74
2023/08/05 03:22:52;;;;;;;4.40;3.40;;;14.60;99.90;;;;;;5107789;28;20624;-73
2023/08/05 03:25:21;;;;;;;3.33;3.03;;;14.60;99.90;;;;;;5113483;28;20696;-73
2023/08/05 03:27:48;;;;;;;4.07;2.60;;;14.60;99.90;;;;;;5114884;28;20620;-73
2023/08/05 03:30:15;;;;;;;4.77;3.07;;;14.60;99.90;;;;;;5112481;28;21136;-74
2023/08/05 03:32:42;;;;;;;2.83;2.60;;;14.70;99.90;;;;;;5107269;28;21324;-73
2023/08/05 03:35:09;;;;;;;3.23;2.90;;;14.70;99.90;;;;;;5107099;28;20638;-73
2023/08/05 03:37:36;;;;;;;3.57;2.77;;;14.70;99.90;;;;;;5107938;28;20733;-74
2023/08/05 03:40:03;;;;;;;3.17;2.20;;;14.70;99.90;;;;;;5113235;27;20650;-74
2023/08/05 03:42:36;;;;;;;4.30;2.97;;;14.60;99.90;;;;;;5107180;28;20620;-74
2023/08/05 03:45:04;;;;;;;6.80;3.27;;;14.70;99.90;;;;;;5117099;28;20735;-73
2023/08/05 03:47:31;;;;;;;5.43;3.77;;;14.70;99.90;;;;;;5105309;28;20670;-73
2023/08/05 03:49:58;;;;;;;3.70;3.40;;;14.70;99.90;;;;;;5117191;28;21238;-73
2023/08/05 03:52:26;;;;;;;4.80;3.87;;;14.70;99.90;;;;;;5110057;28;21395;-73
2023/08/05 03:54:53;;;;;;;3.30;3.00;;;14.70;99.90;;;;;;5119160;28;20980;-74
2023/08/05 03:57:20;;;;;;;5.90;3.50;;;14.70;99.90;;;;;;5117732;28;20662;-73
2023/08/05 03:59:49;;;;;;;3.30;3.00;;;14.80;99.90;;;;;;5110683;28;20628;-74
2023/08/05 04:02:16;;;;;;;3.83;3.03;;;14.80;99.90;;;;;;5108173;28;20648;-73
2023/08/05 04:04:43;;;;;;;4.57;3.70;;;14.70;99.90;;;;;;5104643;28;20628;-73
2023/08/05 04:07:10;;;;;;;7.63;3.43;;;14.70;99.90;;;;;;5106828;28;20682;-73
2023/08/05 04:09:38;;;;;;;5.23;3.50;;;14.70;99.90;;;;;;5110786;28;20620;-73
2023/08/05 04:12:08;;;;;;;4.13;3.40;;;14.80;99.90;;;;;;5106902;28;20775;-73
2023/08/05 04:14:37;;;;;;;2.93;2.63;;;14.80;99.90;;;;;;5104980;28;20641;-73
2023/08/05 04:17:05;;;;;;;9.03;3.60;;;14.80;99.90;;;;;;5110587;28;20693;-73
2023/08/05 04:19:33;;;;;;;3.00;2.70;;;14.70;99.90;;;;;;5107318;28;20663;-73
2023/08/05 04:22:01;;;;;;;3.57;2.87;;;14.80;99.90;;;;;;5102445;28;20655;-73
2023/08/05 04:24:29;;;;;;;3.93;3.53;;;14.70;99.90;;;;;;5111988;27;21210;-73
2023/08/05 04:26:56;;;;;;;3.50;2.87;;;14.80;99.90;;;;;;5119423;27;20751;-73
2023/08/05 04:29:24;;;;;;;3.33;3.03;;;14.80;99.90;;;;;;5119420;27;20709;-74
2023/08/05 04:31:51;;;;;;;3.03;2.80;;;14.70;99.90;;;;;;5121668;27;21230;-73
2023/08/05 04:34:20;;;;;;;4.67;3.80;;;14.70;99.90;;;;;;5113927;27;21200;-73
2023/08/05 04:36:49;;;;;;;5.10;3.57;;;14.80;99.90;;;;;;5112602;27;20751;-73
2023/08/05 04:39:17;;;;;;;6.23;3.17;;;14.80;99.90;;;;;;5101884;28;20715;-73
2023/08/05 04:41:44;;;;;;;3.90;3.40;;;14.80;99.90;;;;;;5111193;27;20676;-73
2023/08/05 04:44:11;;;;;;;4.83;3.27;;;14.80;99.90;;;;;;5115176;27;20680;-74
2023/08/05 04:46:37;;;;;;;4.77;3.57;;;14.80;99.90;;;;;;5110000;27;21050;-74
2023/08/05 04:49:07;;;;;;;3.50;2.80;;;14.80;99.90;;;;;;5109567;28;20638;-73
2023/08/05 04:51:35;;;;;;;4.60;3.40;;;14.70;99.90;;;;;;5109823;28;20668;-72
2023/08/05 04:54:02;;;;;;;4.27;2.73;;;14.70;99.90;;;;;;5118323;27;20962;-74
2023/08/05 04:56:29;;;;;;;3.10;2.80;;;14.70;99.90;;;;;;5112894;27;20643;-73
2023/08/05 04:58:56;;;;;;;3.30;3.00;;;14.70;99.90;;;;;;5112365;27;20659;-73
2023/08/05 05:01:23;;;;;;;3.60;3.00;;;14.70;99.90;;;;;;5113248;27;20754;-73
2023/08/05 05:03:51;;;;;;;3.17;2.87;;;14.70;99.90;;;;;;5110596;27;20702;-73
2023/08/05 05:06:18;;;;;;;4.00;3.37;;;14.70;99.90;;;;;;5111085;27;20651;-73
2023/08/05 05:08:46;;;;;;;4.37;3.40;;;14.80;99.90;;;;;;5111971;27;20754;-73
2023/08/05 05:11:13;;;;;;;3.10;2.63;;;14.80;99.90;;;;;;5116295;27;20661;-73
2023/08/05 05:13:40;;;;;;;2.97;2.67;;;14.90;99.90;;;;;;5118923;27;20638;-74
2023/08/05 05:16:07;;;;;;;4.47;3.20;;;14.90;99.90;;;;;;5122609;27;20706;-72
2023/08/05 05:18:34;;;;;;;3.60;3.00;;;14.80;99.90;;;;;;5118792;27;20634;-73
2023/08/05 05:21:02;;;;;;;3.10;2.80;;;14.80;99.90;;;;;;5109639;27;20994;-73
2023/08/05 05:23:29;;;;;;;3.03;2.73;;;14.90;99.90;;;;;;5118130;27;20735;-74
2023/08/05 05:25:57;;;;;;;3.23;2.83;;;14.90;99.90;;;;;;5121020;27;20751;-77
2023/08/05 05:28:24;;;;;;;5.00;3.20;;;14.90;99.90;;;;;;5115207;27;20616;-74
2023/08/05 05:30:50;;;;;;;3.63;3.33;;;14.90;99.90;;;;;;5111267;27;20644;-74
2023/08/05 05:33:17;;;;;;;5.30;3.30;;;15.00;99.90;;;;;;5108492;28;20771;-77
2023/08/05 05:35:44;;;;;;;3.10;2.87;;;15.00;99.90;;;;;;5107936;28;20658;-77
2023/08/05 05:38:11;;;;;;;2.80;2.50;;;15.00;99.90;;;;;;5117502;27;20628;-77
2023/08/05 05:40:40;;;;;;;2.97;2.67;;;15.00;99.90;;;;;;5116264;27;20654;-78
2023/08/05 05:43:09;;;;;;;11.60;2.83;;;15.10;99.90;;;;;;5109458;27;20616;-74
2023/08/05 05:45:36;;;;;;;3.90;3.10;;;15.10;99.90;;;;;;5117475;27;21245;-81
2023/08/05 05:48:03;;;;;;;3.70;2.97;;;15.10;99.90;;;;;;5109019;27;20624;-77
2023/08/05 05:50:30;;;;;;;3.27;2.97;;;15.00;99.90;;;;;;5119724;27;20993;-76
2023/08/05 05:52:56;;;;;;;3.50;2.60;;;15.00;99.90;;;;;;5108838;28;20699;-80
2023/08/05 05:55:23;;;;;;;2.97;2.37;;;15.00;99.90;;;;;;5120127;27;20644;-78
2023/08/05 05:57:50;;;;;;;3.27;2.60;;;15.10;99.90;;;;;;5115210;27;21278;-76
2023/08/05 06:00:18;;;;;;;4.50;2.93;;;15.00;99.90;;;;;;5108301;27;20643;-78
2023/08/05 06:02:45;;;;;;;2.70;2.33;;;15.10;99.90;;;;;;5118424;27;20623;-78
2023/08/05 06:05:12;;;;;;;3.60;3.10;;;15.20;99.90;;;;;;5111161;27;21277;-78
2023/08/05 06:07:39;;;;;;;2.60;2.40;;;15.20;99.90;;;;;;5117494;27;21274;-71
2023/08/05 06:10:06;;;;;;;3.93;2.80;;;15.20;99.90;;;;;;5106249;28;20711;-71
2023/08/05 06:12:36;;;;;;;3.80;3.17;;;15.30;99.90;;;;;;5108146;28;20775;-73
2023/08/05 06:15:03;;;;;;;3.37;3.07;;;15.30;99.90;;;;;;5116978;27;20635;-72
2023/08/05 06:17:31;;;;;;;2.70;2.50;;;15.40;99.90;;;;;;5120617;27;20619;-71
2023/08/05 06:19:58;;;;;;;4.17;2.83;;;15.50;99.90;;;;;;5113098;27;20628;-72
2023/08/05 06:22:25;;;;;;;2.90;2.60;;;15.60;99.90;;;;;;5112245;27;20656;-71
2023/08/05 06:24:52;;;;;;;2.93;2.73;;;15.70;99.90;;;;;;5113936;27;20635;-71
2023/08/05 06:27:19;;;;;;;3.80;2.80;;;15.70;99.90;;;;;;5110685;27;20651;-71
2023/08/05 06:29:45;;;;;;;3.20;2.90;;;15.70;99.90;;;;;;5109385;27;20739;-72
2023/08/05 06:32:13;;;;;;;2.60;2.33;;;15.70;99.90;;;;;;5107392;28;20961;-73
2023/08/05 06:34:41;;;;;;;3.70;2.67;;;15.80;99.90;;;;;;5116222;27;20629;-72
2023/08/05 06:37:07;;;;;;;4.03;3.07;;;15.80;99.90;;;;;;5120750;27;20657;-72
2023/08/05 06:39:35;;;;;;;2.27;2.07;;;15.80;99.90;;;;;;5116134;27;20727;-73
2023/08/05 06:42:01;;;;;;;3.17;2.00;;;15.90;99.90;;;;;;5113857;27;20669;-73
2023/08/05 06:44:28;;;;;;;8.33;3.10;;;16.00;99.90;;;;;;5120109;27;20731;-73
2023/08/05 06:46:55;;;;;;;4.20;2.27;;;15.90;99.90;;;;;;5110901;27;20652;-73
2023/08/05 06:49:22;;;;;;;2.50;1.93;;;15.90;99.90;;;;;;5113004;27;20627;-73
2023/08/05 06:51:50;;;;;;;2.17;1.97;;;16.00;99.90;;;;;;5108413;28;20688;-73
2023/08/05 06:54:17;;;;;;;4.07;2.93;;;16.10;99.90;;;;;;5118406;27;20719;-73
2023/08/05 06:56:44;;;;;;;2.70;2.30;;;16.20;99.90;;;;;;5096168;28;21232;-73
2023/08/05 06:59:11;;;;;;;5.07;3.17;;;16.20;99.90;;;;;;5095179;28;20668;-73
2023/08/05 07:01:38;;;;;;;2.50;2.30;;;16.30;99.90;;;;;;5089434;28;20658;-73
2023/08/05 07:04:05;;;;;;;2.73;2.53;;;16.40;99.90;;;;;;5083188;28;20704;-73
2023/08/05 07:06:31;;;;;;;3.30;2.43;;;16.50;99.90;;;;;;5090030;28;20649;-73
2023/08/05 07:09:03;;;;;;;3.93;2.30;;;16.50;99.90;;;;;;5086855;28;20643;-73
2023/08/05 07:11:30;;;;;;;1.80;1.70;;;16.50;99.90;;;;;;5086781;28;20657;-73
2023/08/05 07:13:57;;;;;;;1.90;1.73;;;16.50;99.90;;;;;;5091582;28;20660;-73
2023/08/05 07:16:23;;;;;;;1.90;1.80;;;16.50;99.90;;;;;;5097602;28;20670;-73
2023/08/05 07:18:50;;;;;;;2.93;2.73;;;16.50;99.90;;;;;;5100691;28;20743;-73
2023/08/05 07:21:17;;;;;;;3.00;2.07;;;16.70;99.90;;;;;;5086693;28;20641;-73
2023/08/05 07:23:44;;;;;;;2.47;2.27;;;16.70;99.90;;;;;;5088777;28;20613;-73
2023/08/05 07:26:12;;;;;;;2.47;2.27;;;16.70;99.90;;;;;;5094714;28;21307;-73
2023/08/05 07:28:38;;;;;;;1.93;1.83;;;16.80;99.90;;;;;;5095123;28;20715;-73
2023/08/05 07:31:09;;;;;;;2.87;2.63;;;16.90;99.90;;;;;;5088762;28;20656;-74
2023/08/05 07:33:36;;;;;;;3.73;2.67;;;17.10;99.90;;;;;;5099606;28;20762;-72
2023/08/05 07:36:09;;;;;;;2.53;2.30;;;17.30;99.90;;;;;;5096660;28;21319;-72
2023/08/05 07:38:38;;;;;;;1.83;1.70;;;17.50;99.90;;;;;;5095924;28;20625;-72
2023/08/05 07:41:05;;;;;;;2.50;1.93;;;17.50;99.90;;;;;;5088402;28;21228;-72
2023/08/05 07:43:35;;;;;;;2.90;2.53;;;17.60;99.90;;;;;;5096358;28;20616;-72
2023/08/05 07:46:02;;;;;;;3.30;2.93;;;17.70;99.90;;;;;;5083156;28;20815;-72
2023/08/05 07:48:32;;;;;;;2.60;2.40;;;17.50;99.90;;;;;;5090586;28;20620;-72
2023/08/05 07:51:00;;;;;;;2.30;2.10;;;17.50;99.90;;;;;;5092392;28;21209;-72
2023/08/05 07:53:29;;;;;;;2.40;2.20;;;17.50;99.90;;;;;;5102721;28;20652;-72
2023/08/05 07:55:58;;;;;;;2.63;2.00;;;17.70;99.90;;;;;;5098062;28;20652;-72
2023/08/05 07:58:25;;;;;;;2.30;2.10;;;17.80;99.90;;;;;;5095191;28;20641;-72
2023/08/05 08:00:57;;;;;;;2.67;2.47;;;17.90;99.90;;;;;;5101871;28;20643;-71
2023/08/05 08:03:27;;;;;;;2.10;1.97;;;17.80;99.90;;;;;;5092344;28;20631;-72
2023/08/05 08:05:54;;;;;;;2.50;1.70;;;17.80;99.90;;;;;;5094080;28;21022;-72
2023/08/05 08:08:21;;;;;;;1.80;1.70;;;18.00;99.90;;;;;;5091391;28;20710;-72
2023/08/05 08:10:48;;;;;;;2.13;1.93;;;18.20;99.90;;;;;;5093279;28;21124;-72
2023/08/05 08:13:15;;;;;;;3.00;2.80;;;18.00;99.90;;;;;;5102644;28;20671;-72
2023/08/05 08:15:41;;;;;;;1.67;1.57;;;18.00;99.90;;;;;;5099663;28;20648;-73
2023/08/05 08:18:10;;;;;;;2.23;2.03;;;18.20;99.90;;;;;;5095641;28;20642;-73
2023/08/05 08:20:36;;;;;;;2.13;1.93;;;18.30;99.90;;;;;;5091702;28;20655;-72
2023/08/05 08:23:03;;;;;;;2.80;2.50;;;18.20;99.90;;;;;;5098515;28;20634;-73
2023/08/05 08:25:30;;;;;;;2.87;2.67;;;18.70;99.90;;;;;;5102461;28;20644;-73
2023/08/05 08:27:57;;;;;;;3.33;3.10;;;18.60;99.90;;;;;;5093466;28;20632;-73
2023/08/05 08:30:23;;;;;;;2.10;1.90;;;18.60;99.90;;;;;;5093820;28;20651;-73
2023/08/05 08:32:50;;;;;;;4.07;2.70;;;18.50;99.90;;;;;;5097034;28;21024;-73
2023/08/05 08:35:18;;;;;;;2.40;2.20;;;18.30;99.90;;;;;;5098793;28;20623;-73
2023/08/05 08:37:45;;;;;;;3.07;2.40;;;18.50;99.80;;;;;;5098706;28;21045;-73
2023/08/05 08:40:12;;;;;;;2.40;2.20;;;18.70;99.90;;;;;;5100064;28;21198;-73
2023/08/05 08:42:39;;;;;;;2.20;2.00;;;18.70;99.00;;;;;;5098861;28;20629;-73
2023/08/05 08:45:09;;;;;;;1.90;1.80;;;18.70;98.70;;;;;;5091599;28;21191;-73
2023/08/05 08:47:37;;;;;;;2.07;1.90;;;18.60;98.90;;;;;;5087626;28;20629;-73
2023/08/05 08:50:05;;;;;;;2.60;2.40;;;18.20;99.70;;;;;;5097922;28;20628;-73
2023/08/05 08:52:35;;;;;;;2.30;2.00;;;18.50;99.20;;;;;;5093002;28;20659;-73
2023/08/05 08:55:03;;;;;;;2.10;1.90;;;18.60;99.40;;;;;;5098584;28;20629;-73
2023/08/05 08:57:30;;;;;;;2.20;2.10;;;18.50;99.20;;;;;;5093135;28;20615;-73
2023/08/05 08:59:57;;;;;;;2.13;1.90;;;18.70;99.60;;;;;;5099248;28;20750;-73
2023/08/05 09:02:25;;;;;;;4.87;2.30;;;19.00;99.50;;;;;;5099274;28;20650;-73
2023/08/05 09:04:53;;;;;;;3.53;2.60;;;19.40;98.50;;;;;;5099022;28;20653;-73
2023/08/05 09:07:21;;;;;;;1.70;1.53;;;19.50;99.20;;;;;;5096959;28;20668;-73
2023/08/05 09:09:49;;;;;;;2.37;2.17;;;19.30;98.30;;;;;;5097827;28;20724;-73
2023/08/05 09:12:16;;;;;;;2.63;2.47;;;19.40;97.90;;;;;;5088822;28;20665;-73
2023/08/05 09:14:43;;;;;;;2.30;2.10;;;19.40;97.70;;;;;;5096617;28;20667;-73
2023/08/05 09:17:14;;;;;;;2.00;1.90;;;19.50;97.40;;;;;;5098922;28;20658;-73
2023/08/05 09:19:42;;;;;;;2.50;2.30;;;19.30;97.10;;;;;;5093731;28;20626;-73
2023/08/05 09:22:09;;;;;;;1.97;1.83;;;19.10;97.70;;;;;;5093941;28;21141;-73
2023/08/05 09:24:36;;;;;;;4.30;2.27;;;19.20;97.50;;;;;;5088915;28;20634;-73
2023/08/05 09:27:05;;;;;;;2.00;1.90;;;19.50;97.50;;;;;;5088616;28;20646;-73
2023/08/05 09:29:36;;;;;;;1.70;1.60;;;19.60;95.80;;;;;;5093668;28;20634;-72
2023/08/05 09:32:04;;;;;;;1.90;1.60;;;19.70;95.50;;;;;;5088986;28;21255;-73
2023/08/05 09:34:35;;;;;;;1.97;1.80;;;19.70;96.90;;;;;;5097996;28;20661;-73
2023/08/05 09:37:03;;;;;;;2.30;2.10;;;19.80;96.40;;;;;;5097561;28;20763;-73
2023/08/05 09:39:44;;;;;;;2.80;1.70;;;19.90;96.40;;;;;;5096789;28;20627;-73
2023/08/05 09:42:20;;;;;;;2.77;1.87;;;19.80;96.30;;;;;;5092656;28;20659;-73
2023/08/05 09:44:47;;;;;;;1.90;1.80;;;19.60;95.20;;;;;;5100213;28;20630;-73
2023/08/05 09:47:17;;;;;;;1.90;1.80;;;19.40;95.20;;;;;;5097169;28;21004;-72
2023/08/05 09:49:46;;;;;;;2.07;1.90;;;19.40;95.00;;;;;;5089571;28;20627;-73
2023/08/05 09:52:17;;;;;;;1.70;1.60;;;19.00;93.90;;;;;;5096905;28;20667;-73
2023/08/05 09:54:47;;;;;;;1.97;1.87;;;18.90;94.90;;;;;;5089315;28;20672;-73
2023/08/05 09:57:14;;;;;;;2.00;1.90;;;18.90;94.10;;;;;;5097729;28;21244;-73
2023/08/05 09:59:42;;;;;;;1.43;1.30;;;18.90;94.20;;;;;;5100129;28;21192;-74
2023/08/05 10:02:12;;;;;;;1.83;1.73;;;18.80;95.00;;;;;;5095819;28;20651;-73
2023/08/05 10:04:41;;;;;;;2.13;1.87;;;18.80;94.10;;;;;;5088315;28;20642;-72
2023/08/05 10:07:08;;;;;;;1.70;1.60;;;18.80;95.30;;;;;;5088147;28;21679;-73
2023/08/05 10:09:35;;;;;;;1.50;1.40;;;18.80;95.30;;;;;;5098491;28;20619;-73
2023/08/05 10:12:03;;;;;;;2.27;1.80;;;18.80;95.00;;;;;;5099655;28;21250;-73
2023/08/05 10:14:31;;;;;;;1.30;1.20;;;18.70;94.30;;;;;;5094494;28;21061;-73
2023/08/05 10:16:59;;;;;;;1.83;1.70;;;18.80;94.40;;;;;;5090018;28;20653;-73
2023/08/05 10:19:31;;;;;;;1.57;1.47;;;18.80;95.10;;;;;;5087545;28;21104;-73
2023/08/05 10:22:09;;;;;;;1.60;1.50;;;19.00;95.40;;;;;;5093334;28;20651;-73
2023/08/05 10:24:56;;;;;;;1.93;1.80;;;18.90;94.00;;;;;;5085549;28;20621;-73
2023/08/05 10:27:40;;;;;;;1.50;1.40;;;18.60;93.60;;;;;;5082637;28;20679;-73
2023/08/05 10:30:12;;;;;;;2.23;2.07;;;18.90;95.90;;;;;;5082377;28;20702;-73
2023/08/05 10:32:53;;;;;;;4.20;2.07;;;19.00;96.40;;;;;;5092778;28;20715;-73
2023/08/05 10:35:31;;;;;;;2.07;1.97;;;19.20;95.50;;;;;;5089147;28;20629;-73
2023/08/05 10:38:13;;;;;;;1.60;1.50;;;19.50;94.50;;;;;;5087509;28;20671;-73
2023/08/05 10:41:00;;;;;;;1.83;1.73;;;19.30;93.70;;;;;;5092983;28;20662;-73
2023/08/05 10:43:35;;;;;;;3.40;1.57;;;19.10;93.60;;;;;;5097387;28;21194;-73
2023/08/05 10:46:11;;;;;;;1.90;1.80;;;19.10;94.10;;;;;;5092915;28;20771;-73
2023/08/05 10:48:41;;;;;;;2.07;1.60;;;19.30;95.10;;;;;;5093924;28;20635;-73
2023/08/05 10:51:09;;;;;;;3.33;1.80;;;19.30;93.40;;;;;;5099343;28;20671;-74
2023/08/05 10:53:36;;;;;;;1.93;1.80;;;19.30;94.30;;;;;;5088694;28;20661;-73
2023/08/05 10:56:03;;;;;;;1.97;1.87;;;19.40;94.90;;;;;;5087253;28;20654;-72
2023/08/05 10:58:35;;;;;;;1.60;1.50;;;19.50;94.10;;;;;;5088602;28;20626;-73
2023/08/05 11:01:03;;;;;;;1.93;1.80;;;19.60;94.40;;;;;;5087278;28;20762;-73
2023/08/05 11:03:31;;;;;;;1.90;1.80;;;19.50;93.70;;;;;;5097923;28;20630;-73
2023/08/05 11:06:01;;;;;;;2.93;1.60;;;19.40;94.90;;;;;;5099671;28;20649;-73
2023/08/05 11:08:28;;;;;;;2.40;2.20;;;19.30;94.50;;;;;;5095510;28;20708;-73
2023/08/05 11:10:55;;;;;;;1.63;1.53;;;19.30;95.40;;;;;;5086140;28;20677;-73
2023/08/05 11:13:22;;;;;;;2.53;2.33;;;19.20;96.00;;;;;;5087003;28;20662;-72
2023/08/05 11:16:03;;;;;;;1.93;1.83;;;19.20;96.30;;;;;;5096011;28;20669;-73
2023/08/05 11:18:30;;;;;;;2.33;2.13;;;19.30;95.10;;;;;;5103328;28;21204;-73
2023/08/05 11:20:59;;;;;;;2.00;1.90;;;19.40;95.80;;;;;;5086693;28;20659;-73
2023/08/05 11:23:27;;;;;;;2.53;2.33;;;19.30;95.50;;;;;;5098480;28;21268;-73
2023/08/05 11:25:54;;;;;;;3.03;2.27;;;19.50;95.30;;;;;;5093748;28;20647;-73
2023/08/05 11:28:21;;;;;;;1.90;1.80;;;19.50;95.60;;;;;;5103612;28;20626;-73
2023/08/05 11:30:48;;;;;;;2.33;2.13;;;19.60;94.20;;;;;;5101211;28;20642;-73
2023/08/05 11:33:15;;;;;;;3.83;2.00;;;19.70;94.60;;;;;;5091399;28;20624;-73
2023/08/05 11:35:46;;;;;;;1.90;1.80;;;19.80;94.60;;;;;;5091255;28;20666;-73
2023/08/05 11:38:16;;;;;;;3.60;2.50;;;20.10;93.50;;;;;;5087806;28;21139;-73
2023/08/05 11:40:45;;;;;;;2.40;2.20;;;20.20;93.90;;;;;;5094313;28;20647;-73
2023/08/05 11:43:14;;;;;;;4.10;1.97;;;20.30;93.40;;;;;;5100008;28;20628;-73
2023/08/05 11:45:41;;;;;;;2.20;2.00;;;20.30;94.20;;;;;;5100029;28;20649;-73
2023/08/05 11:48:20;;;;;;;2.77;2.43;;;20.50;94.00;;;;;;5107091;28;21146;-73
2023/08/05 11:50:47;;;;;;;3.00;2.60;;;20.90;92.90;;;;;;5089638;28;21001;-73
2023/08/05 11:53:14;;;;;;;2.30;2.10;;;21.20;92.70;;;;;;5092392;28;20987;-73
2023/08/05 11:55:42;;;;;;;2.13;1.93;;;21.60;91.60;;;;;;5091127;28;20641;-73
2023/08/05 11:58:11;;;;;;;2.07;1.97;;;22.20;91.80;;;;;;5091274;28;21097;-73
2023/08/05 12:00:43;;;;;;;2.40;2.20;;;22.10;86.60;;;;;;5084300;28;20664;-73
2023/08/05 12:03:10;;;;;;;2.37;2.17;;;21.50;83.80;;;;;;5099221;28;20623;-73
2023/08/05 12:05:37;;;;;;;3.17;2.13;;;22.20;90.10;;;;;;5097503;28;21003;-73
2023/08/05 12:08:04;;;;;;;2.60;1.80;;;23.90;85.00;;;;;;5100214;28;21023;-73
2023/08/05 12:10:31;;;;;;;2.13;2.00;;;25.10;79.60;;;;;;5097321;28;20760;-73
2023/08/05 12:12:58;;;;;;;2.70;1.90;;;25.20;80.20;;;;;;5091474;28;20686;-73
2023/08/05 12:15:27;;;;;;;1.90;1.80;;;26.20;72.00;;;;;;5092499;28;20678;-73
2023/08/05 12:17:56;;;;;;;1.97;1.87;;;26.80;71.10;;;;;;5094154;28;20627;-74
2023/08/05 12:20:24;;;;;;;1.90;1.80;;;27.30;72.40;;;;;;5093692;28;20628;-74
2023/08/05 12:22:51;;;;;;;2.07;1.97;;;27.00;66.90;;;;;;5090566;28;20731;-74
2023/08/05 12:25:19;;;;;;;2.03;1.77;;;26.40;66.60;;;;;;5095424;28;20622;-74
2023/08/05 12:27:46;;;;;;;3.37;1.83;;;25.80;70.80;;;;;;5090255;28;20727;-74
2023/08/05 12:30:14;;;;;;;2.00;1.90;;;25.40;71.90;;;;;;5094812;28;20611;-74
2023/08/05 12:32:42;;;;;;;2.37;2.17;;;24.90;72.40;;;;;;5098937;28;21344;-73
2023/08/05 12:35:10;;;;;;;3.50;1.93;;;24.60;70.90;;;;;;5089063;28;20660;-74
2023/08/05 12:37:39;;;;;;;2.47;2.33;;;24.10;75.30;;;;;;5091867;28;20629;-73
2023/08/05 12:40:08;;;;;;;2.40;1.97;;;23.60;75.20;;;;;;5097977;28;20624;-73
2023/08/05 12:42:35;;;;;;;3.73;1.77;;;22.80;79.60;;;;;;5094258;28;20725;-74
2023/08/05 12:45:04;;;;;;;1.67;1.50;;;22.60;80.10;;;;;;5091630;28;21033;-73
2023/08/05 12:47:31;;;;;;;3.17;2.17;;;22.40;82.50;;;;;;5093397;28;20655;-72
2023/08/05 12:49:59;;;;;;;2.10;2.00;;;22.00;82.40;;;;;;5097315;28;20655;-73
2023/08/05 12:52:26;;;;;;;3.00;2.53;;;21.80;82.90;;;;;;5088275;28;20731;-72